Time;durP1;ratioP1;P1;durP2;ratioP2;P2;SDS_P1;SDS_P2;PMS_P1;PMS_P2;Temp;Humidity;BMP_temperature;BMP_pressure;BME280_temperature;BME280_humidity;BME280_pressure;Samples;Min_cycle;Max_cycle;Signal;HPM_P1;HPM_P2
2023/01/29 00:00:30;;;;;;;;;36.25;31.50;;;;;4.79;56.32;102704.44;5064584;27;45439;-70
2023/01/29 00:02:56;;;;;;;;;49.00;39.25;;;;;4.76;56.44;102693.78;5069424;27;45453;-70
2023/01/29 00:05:21;;;;;;;;;40.75;35.50;;;;;4.80;55.59;102694.72;5069430;27;45687;-70
2023/01/29 00:07:47;;;;;;;;;37.00;34.25;;;;;4.85;56.96;102687.78;5089472;27;45366;-70
2023/01/29 00:10:12;;;;;;;;;42.25;35.25;;;;;4.86;56.45;102688.69;5073942;28;46031;-71
2023/01/29 00:12:38;;;;;;;;;27.00;24.00;;;;;4.89;56.58;102688.75;5071238;27;45374;-70
2023/01/29 00:15:04;;;;;;;;;45.25;37.00;;;;;4.96;56.60;102691.56;5062200;28;45312;-70
2023/01/29 00:17:29;;;;;;;;;36.25;30.75;;;;;4.97;55.66;102692.47;5077314;27;45423;-70
2023/01/29 00:19:54;;;;;;;;;44.25;36.00;;;;;4.98;56.04;102694.25;5075298;27;45439;-70
2023/01/29 00:22:20;;;;;;;;;36.25;31.75;;;;;4.93;56.42;102690.63;5073590;27;45340;-70
2023/01/29 00:24:45;;;;;;;;;37.00;34.50;;;;;4.95;56.57;102691.53;5078155;27;47141;-70
2023/01/29 00:27:10;;;;;;;;;33.75;31.00;;;;;4.85;56.64;102668.38;5073382;27;45589;-70
2023/01/29 00:29:36;;;;;;;;;40.50;37.25;;;;;4.99;55.95;102686.34;5077827;27;46656;-70
2023/01/29 00:32:01;;;;;;;;;44.50;36.50;;;;;5.05;57.10;102690.00;5059645;27;45482;-70
2023/01/29 00:34:26;;;;;;;;;27.75;22.75;;;;;5.07;56.83;102683.84;5078338;28;45603;-70
2023/01/29 00:36:51;;;;;;;;;35.50;33.75;;;;;5.11;56.63;102679.50;5076669;28;45431;-70
2023/01/29 00:39:23;;;;;;;;;42.25;35.75;;;;;5.11;56.21;102680.44;5077737;27;45322;-70
2023/01/29 00:50:13;;;;;;;;;41.50;38.75;;;;;5.18;56.72;102663.81;5038097;27;46948;-70
2023/01/29 00:52:40;;;;;;;;;44.50;39.50;;;;;5.21;56.16;102676.19;5066939;27;45848;-70
2023/01/29 00:55:06;;;;;;;;;31.00;25.75;;;;;5.19;56.12;102664.69;5077158;27;45369;-68
2023/01/29 00:57:34;;;;;;;;;39.00;32.25;;;;;5.24;56.08;102672.72;5072944;27;45452;-70
2023/01/29 01:00:00;;;;;;;;;47.75;39.00;;;;;5.29;55.76;102679.00;5078344;27;45391;-70
2023/01/29 01:05:16;;;;;;;;;39.50;36.50;;;;;5.26;55.79;102665.72;5082084;28;45561;-70
2023/01/29 01:07:51;;;;;;;;;35.00;32.00;;;;;5.26;56.43;102665.72;5082143;27;45431;-70
2023/01/29 01:10:28;;;;;;;;;38.00;29.00;;;;;5.29;56.68;102671.06;5073328;28;45561;-70
2023/01/29 01:12:59;;;;;;;;;45.00;37.25;;;;;5.30;55.89;102659.63;5082133;27;45869;-70
2023/01/29 01:15:28;;;;;;;;;42.75;34.25;;;;;5.31;56.65;102658.75;5076961;27;45535;-70
2023/01/29 01:17:58;;;;;;;;;31.75;28.00;;;;;5.30;55.91;102656.97;5072895;27;45668;-70
2023/01/29 01:20:26;;;;;;;;;43.25;35.75;;;;;5.33;56.26;102659.66;5061756;28;45566;-70
2023/01/29 01:22:55;;;;;;;;;37.00;33.00;;;;;5.32;56.97;102664.06;5072090;27;45401;-70
2023/01/29 01:25:22;;;;;;;;;45.00;31.25;;;;;5.35;56.85;102664.16;5069281;28;45482;-70
2023/01/29 01:27:54;;;;;;;;;37.75;32.25;;;;;5.33;55.83;102654.38;5079895;27;45492;-70
2023/01/29 01:30:20;;;;;;;;;28.25;21.25;;;;;5.34;56.82;102669.41;5073697;27;45601;-70
2023/01/29 01:32:45;;;;;;;;;47.50;38.00;;;;;5.26;55.44;102652.47;5065898;27;45426;-70
2023/01/29 01:35:13;;;;;;;;;37.25;35.00;;;;;5.24;55.85;102652.44;5073399;27;45278;-70
2023/01/29 01:37:39;;;;;;;;;35.75;31.00;;;;;5.17;56.05;102654.06;5072593;27;45484;-70
2023/01/29 01:40:11;;;;;;;;;40.00;35.75;;;;;5.23;56.87;102663.91;5067697;28;45451;-70
2023/01/29 01:42:40;;;;;;;;;36.75;31.25;;;;;5.20;56.39;102664.72;5073866;27;46655;-70
2023/01/29 01:45:23;;;;;;;;;52.50;38.50;;;;;5.20;56.05;102664.72;5076603;28;45590;-70
2023/01/29 01:47:55;;;;;;;;;40.00;35.75;;;;;5.28;56.55;102674.56;5074848;27;45436;-70
2023/01/29 01:50:27;;;;;;;;;39.75;37.25;;;;;5.28;56.82;102669.28;5073603;27;46342;-70
2023/01/29 01:53:00;;;;;;;;;46.25;39.75;;;;;5.26;56.86;102656.03;5074328;27;45672;-70
2023/01/29 01:55:29;;;;;;;;;43.75;39.00;;;;;5.26;56.39;102668.34;5067262;28;45390;-69
2023/01/29 01:58:16;;;;;;;;;37.50;33.25;;;;;5.32;55.83;102669.38;5064552;27;45585;-70
2023/01/29 02:00:42;;;;;;;;;44.00;32.50;;;;;5.32;56.45;102674.66;5067398;28;45534;-69
2023/01/29 02:11:27;;;;;;;;;33.00;29.00;;;;;5.29;56.14;102679.91;5062892;28;45863;-69
2023/01/29 02:13:52;;;;;;;;;40.50;38.00;;;;;5.27;56.82;102686.94;5076549;27;45542;-69
2023/01/29 02:16:20;;;;;;;;;37.25;31.25;;;;;5.24;56.34;102689.50;5066645;27;45909;-69
2023/01/29 02:18:45;;;;;;;;;33.00;28.50;;;;;5.23;56.48;102689.47;5070091;27;45594;-69
2023/01/29 02:21:13;;;;;;;;;46.00;38.25;;;;;5.27;57.11;102686.03;5065416;27;45516;-69
2023/01/29 02:23:59;;;;;;;;;48.25;38.00;;;;;5.26;56.11;102690.44;5075662;27;45303;-69
2023/01/29 02:26:46;;;;;;;;;37.50;36.00;;;;;5.24;56.28;102684.22;5070197;27;45370;-69
2023/01/29 02:29:26;;;;;;;;;36.00;33.50;;;;;5.24;56.40;102678.91;5065560;27;45446;-69
2023/01/29 02:32:11;;;;;;;;;39.75;33.25;;;;;5.26;56.71;102677.22;5062211;27;45477;-69
2023/01/29 02:35:27;;;;;;;;;45.75;39.00;;;;;5.24;56.54;102672.72;5078791;27;45846;-69
2023/01/29 02:38:17;;;;;;;;;50.00;41.75;;;;;5.21;57.08;102684.13;5029816;28;45577;-69
2023/01/29 02:40:50;;;;;;;;;41.75;36.00;;;;;5.19;56.69;102685.88;5080311;27;45629;-69
2023/01/29 02:43:40;;;;;;;;;54.50;42.25;;;;;5.19;57.20;102689.44;5071785;27;46126;-69
2023/01/29 02:46:25;;;;;;;;;53.25;39.25;;;;;5.21;56.59;102686.78;5064894;28;45330;-69
2023/01/29 02:48:58;;;;;;;;;52.00;36.75;;;;;5.20;57.22;102672.66;5069201;27;45470;-69
2023/01/29 02:51:49;;;;;;;;;51.00;40.00;;;;;5.23;56.30;102670.94;5076006;27;45400;-69
2023/01/29 02:54:39;;;;;;;;;47.00;40.00;;;;;5.22;57.32;102667.41;5073098;27;46289;-69
2023/01/29 02:57:16;;;;;;;;;48.75;38.50;;;;;5.19;57.53;102662.97;5058797;28;45803;-69
2023/01/29 02:59:49;;;;;;;;;51.00;40.50;;;;;5.20;57.46;102654.13;5072601;27;45473;-69
2023/01/29 03:02:19;;;;;;;;;37.50;36.75;;;;;5.21;56.90;102647.06;5065560;28;45456;-69
2023/01/29 03:05:00;;;;;;;;;43.75;36.00;;;;;5.18;56.99;102639.97;5077269;27;46321;-69
2023/01/29 03:07:45;;;;;;;;;42.50;36.75;;;;;5.18;57.03;102637.31;5068218;28;45795;-69
2023/01/29 03:10:20;;;;;;;;;45.00;41.75;;;;;5.19;56.89;102639.13;5077302;27;45511;-69
2023/01/29 03:12:54;;;;;;;;;38.00;37.50;;;;;5.20;56.40;102638.25;5065481;27;45409;-69
2023/01/29 03:15:25;;;;;;;;;40.75;34.75;;;;;5.19;57.63;102635.56;5072866;27;45541;-69
2023/01/29 03:18:14;;;;;;;;;48.75;39.25;;;;;5.18;57.54;102650.56;5074431;28;45775;-69
2023/01/29 03:20:47;;;;;;;;;41.25;36.00;;;;;5.18;57.51;102647.91;5081992;27;45397;-68
2023/01/29 03:23:25;;;;;;;;;38.50;34.50;;;;;5.11;57.68;102634.50;5074343;27;45424;-69
2023/01/29 03:34:27;;;;;;;;;38.50;30.75;;;;;5.17;56.50;102630.22;5069182;27;45452;-69
2023/01/29 03:36:54;;;;;;;;;35.50;32.50;;;;;5.18;57.31;102634.69;5075099;27;46149;-69
2023/01/29 03:39:20;;;;;;;;;38.75;33.50;;;;;5.15;57.71;102636.38;5076248;27;45291;-69
2023/01/29 03:41:52;;;;;;;;;46.75;39.25;;;;;5.17;57.82;102638.19;5060859;28;45343;-69
2023/01/29 03:44:34;;;;;;;;;40.50;37.25;;;;;5.16;57.53;102636.41;5071958;27;45538;-69
2023/01/29 03:47:23;;;;;;;;;28.75;26.00;;;;;5.14;57.06;102638.09;5059265;28;47238;-69
2023/01/29 03:50:00;;;;;;;;;43.75;37.25;;;;;5.10;57.76;102635.41;5085984;27;45375;-69
2023/01/29 03:52:50;;;;;;;;;44.00;33.25;;;;;5.13;57.31;102643.41;5076734;27;45423;-69
2023/01/29 03:55:38;;;;;;;;;49.75;40.75;;;;;5.12;57.97;102649.53;5067535;27;45541;-69
2023/01/29 03:58:17;;;;;;;;;50.00;40.25;;;;;5.12;58.32;102637.19;5065169;28;45448;-69
2023/01/29 04:00:55;;;;;;;;;40.75;38.50;;;;;5.09;57.83;102639.78;5066123;27;47136;-69
2023/01/29 04:03:25;;;;;;;;;56.00;42.25;;;;;5.13;57.78;102633.69;5078385;27;45385;-69
2023/01/29 04:06:04;;;;;;;;;47.75;37.00;;;;;5.10;57.36;102633.63;5062207;28;45281;-69
2023/01/29 04:08:33;;;;;;;;;41.25;39.00;;;;;5.11;58.00;102634.50;5059118;27;46687;-68
2023/01/29 04:11:05;;;;;;;;;50.00;40.50;;;;;5.11;57.45;102634.50;5065912;28;45750;-69
2023/01/29 04:13:32;;;;;;;;;42.50;37.75;;;;;5.10;57.52;102628.34;5066463;27;45478;-68
2023/01/29 04:16:00;;;;;;;;;49.25;37.50;;;;;5.10;57.59;102636.28;5063849;28;45456;-68
2023/01/29 04:18:26;;;;;;;;;39.00;37.25;;;;;5.06;57.99;102638.81;5058705;28;46085;-68
2023/01/29 04:20:52;;;;;;;;;40.00;37.75;;;;;5.09;57.57;102645.06;5079260;27;45325;-68
2023/01/29 04:23:25;;;;;;;;;40.50;35.25;;;;;5.07;58.03;102627.38;5074897;28;45530;-69
2023/01/29 04:26:18;;;;;;;;;49.00;37.25;;;;;5.09;57.36;102629.19;5074630;27;45449;-69
2023/01/29 04:29:08;;;;;;;;;50.00;40.00;;;;;5.09;58.42;102642.41;5067304;27;45437;-68
2023/01/29 04:31:58;;;;;;;;;44.50;40.00;;;;;5.09;58.00;102638.88;5065571;28;45921;-68
2023/01/29 04:34:30;;;;;;;;;43.25;39.50;;;;;5.08;57.64;102645.03;5084874;27;45546;-68
2023/01/29 04:37:20;;;;;;;;;40.50;32.25;;;;;5.08;57.98;102651.25;5079065;27;45479;-69
2023/01/29 04:40:27;;;;;;;;;50.00;42.00;;;;;5.08;58.28;102645.94;5068134;27;46035;-69
2023/01/29 04:43:12;;;;;;;;;43.00;39.75;;;;;5.07;58.37;102653.84;5061790;28;45631;-69
2023/01/29 04:45:55;;;;;;;;;42.25;38.75;;;;;5.07;58.63;102641.50;5079935;27;45405;-69
2023/01/29 04:49:00;;;;;;;;;38.25;35.50;;;;;5.07;58.38;102643.25;5068693;28;45382;-69
2023/01/29 04:51:48;;;;;;;;;45.25;38.25;;;;;5.09;58.33;102652.13;5067610;28;45641;-69
2023/01/29 04:54:32;;;;;;;;;39.75;33.75;;;;;5.07;58.59;102644.16;5082526;27;45468;-68
2023/01/29 04:57:00;;;;;;;;;39.00;34.00;;;;;5.05;57.90;102656.47;5064149;28;45741;-68
2023/01/29 04:59:39;;;;;;;;;42.50;39.00;;;;;5.00;58.48;102653.72;5076628;27;45346;-68
2023/01/29 05:02:08;;;;;;;;;50.50;43.00;;;;;5.01;58.29;102655.50;5073445;27;45489;-68
2023/01/29 05:04:38;;;;;;;;;49.75;42.50;;;;;5.00;58.51;102656.38;5075275;27;45452;-69
2023/01/29 05:07:07;;;;;;;;;43.00;40.25;;;;;5.00;58.03;102661.66;5073169;27;45623;-69
2023/01/29 05:09:35;;;;;;;;;46.00;35.50;;;;;4.98;58.34;102655.44;5074229;27;45483;-68
2023/01/29 05:12:02;;;;;;;;;47.75;42.50;;;;;4.90;58.06;102658.78;5069552;27;45513;-68
2023/01/29 05:14:32;;;;;;;;;42.00;33.75;;;;;4.90;58.73;102659.69;5065841;27;45291;-69
2023/01/29 05:17:02;;;;;;;;;32.50;28.00;;;;;4.93;58.29;102664.16;5066814;27;45594;-68
2023/01/29 05:19:28;;;;;;;;;42.50;35.00;;;;;4.92;58.86;102647.34;5074933;27;45520;-68
2023/01/29 05:21:54;;;;;;;;;47.25;36.50;;;;;4.93;58.70;102662.41;5069018;28;45958;-68
2023/01/29 05:24:22;;;;;;;;;41.75;36.75;;;;;4.95;58.28;102658.03;5062896;27;45567;-68
2023/01/29 05:29:33;;;;;;;;;44.00;40.00;;;;;4.92;58.63;102641.19;5064194;27;45466;-68
2023/01/29 05:31:59;;;;;;;;;45.00;37.75;;;;;4.91;58.49;102636.75;5059391;28;46168;-68
2023/01/29 05:34:24;;;;;;;;;48.50;35.75;;;;;4.96;58.28;102645.66;5062110;27;45378;-68
2023/01/29 05:36:50;;;;;;;;;43.25;37.25;;;;;4.91;58.86;102628.78;5076027;28;45364;-69
2023/01/29 05:39:16;;;;;;;;;43.75;39.75;;;;;4.95;58.29;102636.84;5060474;27;45536;-68
2023/01/29 05:41:41;;;;;;;;;50.25;40.00;;;;;4.93;58.77;102642.97;5066387;27;46947;-68
2023/01/29 05:44:09;;;;;;;;;47.00;41.00;;;;;4.95;58.24;102647.44;5069343;27;45353;-68
2023/01/29 05:46:34;;;;;;;;;40.50;38.25;;;;;4.94;58.63;102653.56;5071711;27;45465;-68
2023/01/29 05:49:00;;;;;;;;;44.50;39.75;;;;;4.94;58.72;102648.28;5068651;27;45389;-69
2023/01/29 05:51:25;;;;;;;;;52.25;41.75;;;;;4.96;59.04;102653.59;5070647;27;45535;-68
2023/01/29 05:53:50;;;;;;;;;38.75;34.25;;;;;4.95;59.08;102658.03;5079254;27;45613;-68
2023/01/29 05:56:16;;;;;;;;;45.00;39.50;;;;;4.93;58.69;102653.56;5073129;27;45275;-65
2023/01/29 05:58:41;;;;;;;;;48.00;40.00;;;;;4.92;58.28;102657.06;5071432;28;45326;-67
2023/01/29 06:01:09;;;;;;;;;42.50;39.00;;;;;4.91;59.25;102652.63;5073694;27;46037;-67
2023/01/29 06:03:35;;;;;;;;;41.25;36.00;;;;;4.90;59.46;102650.84;5073882;28;45313;-67
2023/01/29 06:06:01;;;;;;;;;42.25;37.00;;;;;4.85;59.23;102642.81;5075969;27;45498;-67
2023/01/29 06:08:26;;;;;;;;;39.75;37.25;;;;;4.88;59.53;102647.25;5063372;28;45362;-67
2023/01/29 06:10:51;;;;;;;;;55.00;40.00;;;;;4.86;59.03;102644.59;5071453;27;46434;-67
2023/01/29 06:13:16;;;;;;;;;46.50;39.75;;;;;4.89;59.81;102649.06;5065965;28;45431;-67
2023/01/29 06:15:42;;;;;;;;;44.75;40.75;;;;;4.89;59.13;102657.88;5067835;27;45548;-67
2023/01/29 06:18:07;;;;;;;;;46.75;40.50;;;;;4.86;59.14;102649.91;5073284;28;46842;-67
2023/01/29 06:20:32;;;;;;;;;45.75;35.25;;;;;4.87;59.14;102653.44;5070368;27;45408;-67
2023/01/29 06:22:58;;;;;;;;;52.00;42.00;;;;;4.88;59.39;102663.13;5068026;28;45371;-67
2023/01/29 06:25:23;;;;;;;;;40.50;36.75;;;;;4.82;59.40;102662.13;5088778;27;45283;-67
2023/01/29 06:27:52;;;;;;;;;41.25;36.00;;;;;4.80;59.48;102665.63;5076661;27;45490;-67
2023/01/29 06:30:17;;;;;;;;;44.00;39.75;;;;;4.82;58.92;102664.78;5062129;27;46324;-67
2023/01/29 06:32:42;;;;;;;;;37.25;32.00;;;;;4.82;58.85;102670.06;5075183;28;45409;-67
2023/01/29 06:35:09;;;;;;;;;50.25;38.75;;;;;4.81;59.55;102667.41;5073086;27;45422;-67
2023/01/29 06:37:35;;;;;;;;;42.00;32.25;;;;;4.82;59.17;102669.19;5074916;27;45459;-67
2023/01/29 06:40:00;;;;;;;;;49.00;40.00;;;;;4.77;60.07;102671.72;5065399;27;45535;-67
2023/01/29 06:42:26;;;;;;;;;50.00;35.75;;;;;4.76;59.49;102671.69;5073710;28;45360;-67
2023/01/29 06:44:53;;;;;;;;;49.50;43.25;;;;;4.75;59.21;102667.28;5069107;27;45452;-67
2023/01/29 06:47:19;;;;;;;;;46.50;42.25;;;;;4.74;59.46;102671.66;5063475;27;45625;-67
2023/01/29 06:49:44;;;;;;;;;48.50;40.25;;;;;4.75;58.84;102681.41;5069803;27;46255;-67
2023/01/29 06:52:09;;;;;;;;;41.75;39.00;;;;;4.76;59.17;102684.91;5069439;28;45228;-67
2023/01/29 06:54:35;;;;;;;;;52.75;43.50;;;;;4.67;59.66;102676.78;5062866;27;45525;-67
2023/01/29 06:57:00;;;;;;;;;49.25;41.75;;;;;4.68;59.47;102683.84;5062050;27;45258;-67
2023/01/29 06:59:25;;;;;;;;;56.75;44.50;;;;;4.64;59.38;102680.25;5071954;28;46096;-68
2023/01/29 07:01:50;;;;;;;;;48.50;41.25;;;;;4.62;59.65;102669.63;5061104;27;45393;-68
2023/01/29 07:04:16;;;;;;;;;49.00;40.00;;;;;4.62;59.59;102679.31;5064432;28;45518;-67
2023/01/29 07:06:41;;;;;;;;;42.00;39.00;;;;;4.59;59.29;102688.09;5072624;27;45703;-67
2023/01/29 07:09:07;;;;;;;;;48.00;40.00;;;;;4.56;59.47;102682.72;5072122;28;46185;-67
2023/01/29 07:11:36;;;;;;;;;46.75;39.50;;;;;4.55;59.60;102694.16;5068226;27;45381;-67
2023/01/29 07:14:02;;;;;;;;;43.75;40.50;;;;;4.50;59.59;102685.22;5078159;27;45605;-67
2023/01/29 07:16:28;;;;;;;;;47.75;41.50;;;;;4.52;59.73;102690.53;5067306;27;45371;-67
2023/01/29 07:18:53;;;;;;;;;47.00;41.00;;;;;4.49;59.60;102686.06;5065551;27;45502;-67
2023/01/29 07:21:18;;;;;;;;;48.50;43.75;;;;;4.43;59.98;102686.81;5063933;28;45528;-67
2023/01/29 07:23:44;;;;;;;;;50.75;42.25;;;;;4.41;60.31;102683.25;5076877;27;45375;-67
2023/01/29 07:26:10;;;;;;;;;47.75;39.50;;;;;4.39;59.98;102689.34;5078098;28;45475;-69
2023/01/29 07:28:37;;;;;;;;;45.50;40.25;;;;;4.38;59.84;102684.94;5077624;27;45610;-69
2023/01/29 07:31:03;;;;;;;;;55.75;43.75;;;;;4.36;59.76;102684.91;5068612;28;45412;-70
2023/01/29 07:33:28;;;;;;;;;49.25;41.50;;;;;4.25;60.03;102667.88;5079530;27;45377;-71
2023/01/29 07:35:54;;;;;;;;;46.50;40.50;;;;;4.25;59.81;102666.09;5076527;28;45504;-71
2023/01/29 07:38:19;;;;;;;;;56.25;42.50;;;;;4.36;60.36;102687.53;5080368;27;45580;-71
2023/01/29 07:40:44;;;;;;;;;32.25;32.25;;;;;4.35;60.25;102683.09;5070543;27;45381;-71
2023/01/29 07:43:10;;;;;;;;;48.50;43.25;;;;;4.33;60.85;102679.53;5076394;27;45576;-70
2023/01/29 07:45:38;;;;;;;;;53.50;44.00;;;;;4.35;59.70;102683.09;5073112;27;45437;-71
2023/01/29 07:48:04;;;;;;;;;58.50;41.25;;;;;4.36;60.32;102691.91;5069320;27;45384;-71
2023/01/29 07:50:31;;;;;;;;;46.50;40.25;;;;;4.32;59.58;102690.94;5059580;28;45260;-71
2023/01/29 07:52:57;;;;;;;;;48.75;42.75;;;;;4.32;60.24;102698.00;5076890;27;45335;-71
2023/01/29 07:55:23;;;;;;;;;58.00;41.75;;;;;4.30;60.30;102690.03;5066464;28;45480;-70
2023/01/29 07:57:55;;;;;;;;;56.50;45.50;;;;;4.27;59.77;102693.47;5077910;27;46188;-70
2023/01/29 08:00:20;;;;;;;;;46.50;40.75;;;;;4.23;60.41;102690.75;5073792;28;45385;-70
2023/01/29 08:02:46;;;;;;;;;46.25;40.00;;;;;4.20;60.92;102693.28;5064039;27;45729;-70
2023/01/29 08:05:11;;;;;;;;;54.75;46.00;;;;;4.19;60.91;102692.41;5065894;27;45305;-70
2023/01/29 08:07:36;;;;;;;;;63.25;51.00;;;;;4.17;60.55;102678.25;5071273;27;45298;-70
2023/01/29 08:10:02;;;;;;;;;51.00;41.50;;;;;4.15;60.66;102689.66;5079297;27;45287;-70
2023/01/29 08:12:27;;;;;;;;;48.75;41.00;;;;;4.05;60.59;102686.75;5077666;27;45395;-71
2023/01/29 08:14:53;;;;;;;;;47.50;41.25;;;;;4.12;60.93;102689.56;5066201;27;45571;-70
2023/01/29 08:17:18;;;;;;;;;57.50;47.25;;;;;4.05;60.17;102694.69;5059030;27;46722;-70
2023/01/29 08:19:43;;;;;;;;;56.75;46.50;;;;;4.08;60.61;102694.75;5080096;27;47026;-69
2023/01/29 08:22:08;;;;;;;;;52.75;43.25;;;;;4.06;60.43;102696.47;5058239;28;45523;-69
2023/01/29 08:24:35;;;;;;;;;46.25;39.00;;;;;4.04;59.99;102692.00;5064402;27;45583;-69
2023/01/29 08:27:00;;;;;;;;;54.75;44.75;;;;;4.02;60.93;102681.38;5061754;28;45473;-69
2023/01/29 08:29:26;;;;;;;;;57.50;47.00;;;;;3.90;61.13;102665.22;5061758;27;45619;-69
2023/01/29 08:31:51;;;;;;;;;53.25;44.00;;;;;3.98;61.23;102668.06;5065721;28;45454;-68
2023/01/29 08:34:16;;;;;;;;;56.50;43.50;;;;;4.08;61.12;102689.47;5060972;27;45491;-69
2023/01/29 08:36:42;;;;;;;;;61.50;48.00;;;;;4.10;60.91;102689.53;5064696;28;45814;-69
2023/01/29 08:39:07;;;;;;;;;58.00;46.75;;;;;4.10;60.87;102692.16;5063512;27;45540;-68
2023/01/29 08:41:32;;;;;;;;;55.50;45.25;;;;;4.04;60.50;102674.41;5063777;28;45379;-68
2023/01/29 08:44:00;;;;;;;;;60.00;46.75;;;;;4.08;60.70;102688.59;5063535;27;45508;-68
2023/01/29 08:46:25;;;;;;;;;60.50;45.25;;;;;4.10;61.18;102688.63;5062317;28;45417;-69
2023/01/29 08:48:50;;;;;;;;;63.50;49.00;;;;;4.10;61.22;102692.16;5059491;27;45504;-69
2023/01/29 08:51:16;;;;;;;;;63.00;51.00;;;;;4.06;61.39;102698.25;5062734;28;45689;-68
2023/01/29 08:53:41;;;;;;;;;57.50;46.00;;;;;4.01;61.34;102686.63;5058333;27;45467;-68
2023/01/29 08:56:07;;;;;;;;;61.00;45.75;;;;;4.10;60.94;102701.84;5061820;28;45366;-69
2023/01/29 08:58:32;;;;;;;;;59.00;47.75;;;;;4.14;61.26;102709.88;5063154;27;45580;-69
2023/01/29 09:01:05;;;;;;;;;60.75;46.00;;;;;4.19;61.47;102716.19;5059104;28;45565;-68
2023/01/29 09:03:30;;;;;;;;;51.25;43.25;;;;;4.23;61.18;102725.09;5062268;27;46875;-68
2023/01/29 09:05:56;;;;;;;;;54.50;42.75;;;;;4.29;60.80;102727.00;5060907;27;46374;-68
2023/01/29 09:08:21;;;;;;;;;60.75;50.50;;;;;4.32;61.06;102721.78;5062834;27;45430;-69
2023/01/29 09:10:47;;;;;;;;;63.00;50.25;;;;;4.29;61.01;102714.66;5078188;27;45336;-69
2023/01/29 09:13:12;;;;;;;;;60.75;49.00;;;;;4.43;60.59;102737.06;5058083;27;45604;-69
2023/01/29 09:15:37;;;;;;;;;58.00;48.25;;;;;4.42;60.65;102723.81;5069724;27;46070;-69
2023/01/29 09:18:04;;;;;;;;;64.50;48.75;;;;;4.49;60.43;102733.66;5075971;27;47275;-69
2023/01/29 09:20:29;;;;;;;;;60.50;46.50;;;;;4.53;61.10;102730.25;5068663;27;45525;-68
2023/01/29 09:22:55;;;;;;;;;51.50;45.50;;;;;4.55;60.92;102725.91;5068865;28;45611;-68
2023/01/29 09:25:21;;;;;;;;;62.75;50.50;;;;;4.48;60.76;102715.13;5064894;27;46108;-69
2023/01/29 09:27:46;;;;;;;;;59.25;46.75;;;;;4.55;60.26;102730.31;5062458;28;45475;-69
2023/01/29 09:30:12;;;;;;;;;65.00;52.00;;;;;4.50;60.29;102732.81;5067504;27;45977;-69
2023/01/29 09:32:37;;;;;;;;;68.00;48.75;;;;;4.51;60.33;102729.34;5059569;28;45560;-69
2023/01/29 09:35:03;;;;;;;;;61.25;47.75;;;;;4.53;61.03;102724.97;5069931;27;47404;-69
2023/01/29 09:37:28;;;;;;;;;59.50;48.75;;;;;4.57;60.63;102720.66;5063627;28;45593;-69
2023/01/29 09:39:54;;;;;;;;;67.00;51.25;;;;;4.56;61.12;102718.84;5063559;27;45631;-69
2023/01/29 09:42:34;;;;;;;;;52.00;43.00;;;;;4.59;60.76;102719.84;5065480;28;45525;-69
2023/01/29 09:45:16;;;;;;;;;66.75;51.25;;;;;4.68;60.63;102721.81;5070626;27;47312;-69
2023/01/29 09:47:41;;;;;;;;;62.00;46.75;;;;;4.72;60.36;102721.00;5059477;28;45492;-69
2023/01/29 09:50:17;;;;;;;;;66.25;48.50;;;;;4.74;60.49;102724.56;5067385;27;45772;-69
2023/01/29 09:53:20;;;;;;;;;63.50;47.25;;;;;4.75;60.13;102728.13;5069909;28;45617;-69
2023/01/29 09:55:50;;;;;;;;;61.50;49.25;;;;;4.66;60.35;102718.22;5054659;27;45520;-69
2023/01/29 09:58:34;;;;;;;;;68.75;49.75;;;;;4.72;60.14;102725.41;5063008;27;45543;-70
2023/01/29 10:01:17;;;;;;;;;71.75;52.50;;;;;4.74;60.82;102732.50;5072169;27;45750;-72
2023/01/29 10:03:52;;;;;;;;;62.00;49.25;;;;;4.76;60.75;102730.81;5061919;27;47061;-71
2023/01/29 10:06:25;;;;;;;;;55.50;46.00;;;;;4.80;60.24;102730.00;5064745;28;47369;-70
2023/01/29 10:09:20;;;;;;;;;61.00;46.75;;;;;4.83;60.67;102735.38;5066330;27;45488;-70
2023/01/29 10:12:03;;;;;;;;;62.75;48.25;;;;;4.86;60.62;102731.00;5051399;28;45373;-72
2023/01/29 10:14:42;;;;;;;;;57.50;48.25;;;;;4.85;60.23;102729.25;5070081;27;45526;-72
2023/01/29 10:17:13;;;;;;;;;60.50;49.50;;;;;4.85;60.76;102719.53;5060350;28;45564;-72
2023/01/29 10:20:01;;;;;;;;;67.50;52.50;;;;;4.86;60.63;102720.44;5076762;27;45935;-72
2023/01/29 10:22:55;;;;;;;;;64.50;51.50;;;;;4.87;60.14;102716.94;5063252;28;45552;-72
2023/01/29 10:25:22;;;;;;;;;61.75;48.50;;;;;4.87;60.70;102712.53;5076920;27;45292;-72
2023/01/29 10:27:55;;;;;;;;;65.00;48.75;;;;;4.89;60.98;102713.44;5069871;27;45498;-71
2023/01/29 10:30:29;;;;;;;;;59.25;47.25;;;;;4.90;61.00;102720.53;5065916;27;45850;-70
2023/01/29 10:33:02;;;;;;;;;65.25;49.75;;;;;4.94;59.84;102705.63;5074361;28;45537;-71
2023/01/29 10:35:32;;;;;;;;;70.25;52.25;;;;;4.95;60.35;102700.38;5077882;27;45465;-71
2023/01/29 10:38:14;;;;;;;;;63.00;52.25;;;;;4.93;60.41;102680.03;5074637;27;46343;-69
2023/01/29 10:40:49;;;;;;;;;63.50;51.00;;;;;5.05;60.86;102696.16;5076049;27;45315;-73
2023/01/29 10:43:37;;;;;;;;;64.75;52.75;;;;;5.10;60.45;102678.63;5063074;28;45490;-71
2023/01/29 10:46:11;;;;;;;;;62.50;48.00;;;;;5.20;60.68;102669.13;5076951;28;45649;-71
2023/01/29 10:49:14;;;;;;;;;63.00;49.75;;;;;5.27;61.04;102665.75;5074053;27;46459;-70
2023/01/29 10:51:53;;;;;;;;;65.25;52.75;;;;;5.33;59.58;102670.25;5072580;27;45847;-69
2023/01/29 10:54:21;;;;;;;;;56.00;46.00;;;;;5.37;60.42;102658.88;5070487;27;45710;-69
2023/01/29 10:56:59;;;;;;;;;58.75;47.75;;;;;5.44;60.52;102663.44;5064388;27;45488;-67
2023/01/29 11:00:00;;;;;;;;;54.25;44.00;;;;;5.50;59.18;102662.66;5064773;27;45762;-69
2023/01/29 11:02:25;;;;;;;;;61.75;50.25;;;;;5.52;59.72;102655.63;5068217;27;45492;-68
2023/01/29 11:04:51;;;;;;;;;59.00;46.50;;;;;5.54;60.26;102654.78;5076411;27;45660;-69
2023/01/29 11:07:18;;;;;;;;;61.00;48.50;;;;;5.60;59.79;102655.75;5084630;27;45401;-67
2023/01/29 11:10:07;;;;;;;;;60.25;49.00;;;;;5.66;59.94;102654.13;5076812;27;45714;-68
2023/01/29 11:12:35;;;;;;;;;64.50;50.75;;;;;5.68;60.28;102639.16;5067932;27;46207;-68
2023/01/29 11:15:10;;;;;;;;;63.25;47.75;;;;;5.79;59.06;102649.94;5069732;27;45710;-68
2023/01/29 11:17:36;;;;;;;;;65.25;50.25;;;;;5.77;60.10;102641.09;5064430;27;45837;-68
2023/01/29 11:20:01;;;;;;;;;53.50;44.00;;;;;5.82;59.44;102642.06;5071215;27;45787;-68
2023/01/29 11:22:28;;;;;;;;;61.00;49.25;;;;;5.84;59.28;102636.78;5066609;27;46377;-68
2023/01/29 11:25:19;;;;;;;;;59.00;48.50;;;;;5.89;59.93;102636.00;5069820;27;45687;-68
2023/01/29 11:27:50;;;;;;;;;64.00;49.25;;;;;5.96;60.08;102630.81;5062671;27;45524;-69
2023/01/29 11:30:22;;;;;;;;;65.00;48.75;;;;;6.00;59.29;102632.66;5068602;27;46003;-68
2023/01/29 11:33:06;;;;;;;;;62.00;47.50;;;;;6.07;59.30;102642.53;5073809;28;46068;-68
2023/01/29 11:35:32;;;;;;;;;62.75;47.25;;;;;6.12;59.88;102636.41;5074247;27;45543;-68
2023/01/29 11:38:27;;;;;;;;;54.00;45.00;;;;;6.18;58.79;102633.00;5074209;27;45507;-68
2023/01/29 11:41:13;;;;;;;;;60.25;42.50;;;;;6.20;59.40;102610.03;5052326;28;45923;-69
2023/01/29 11:43:38;;;;;;;;;56.25;44.25;;;;;6.21;59.17;102608.25;5061534;28;46110;-69
2023/01/29 11:46:10;;;;;;;;;46.75;40.00;;;;;6.35;58.73;102608.47;5076362;27;45524;-68
2023/01/29 11:48:53;;;;;;;;;57.50;48.25;;;;;6.38;58.64;102600.56;5055828;28;45713;-69
2023/01/29 11:51:25;;;;;;;;;49.50;42.00;;;;;6.43;58.75;102597.13;5062097;27;45553;-69
2023/01/29 11:53:55;;;;;;;;;44.00;37.00;;;;;6.52;58.91;102606.97;5082321;27;45770;-69
2023/01/29 11:56:27;;;;;;;;;34.25;32.75;;;;;6.54;58.67;102599.91;5071075;27;45676;-68
2023/01/29 11:58:56;;;;;;;;;33.00;27.25;;;;;6.50;58.30;102590.16;5062526;28;45700;-69
2023/01/29 12:01:36;;;;;;;;;23.25;20.75;;;;;6.61;57.46;102603.56;5062835;27;45844;-69
2023/01/29 12:04:11;;;;;;;;;21.50;19.00;;;;;6.64;57.88;102607.13;5063986;28;45553;-69
2023/01/29 12:06:42;;;;;;;;;29.25;24.00;;;;;6.65;57.74;102598.31;5069479;28;45503;-69